sensor_id;sensor_type;location;lat;lon;timestamp;temperature;humidity
18126;DHT22;53956;52.442;13.284;2023-04-05T00:00:54;7.00;73.30
18126;DHT22;53956;52.442;13.284;2023-04-05T00:03:21;6.80;73.40
18126;DHT22;53956;52.442;13.284;2023-04-05T00:05:48;7.00;73.60
18126;DHT22;53956;52.442;13.284;2023-04-05T00:08:15;6.80;74.20
18126;DHT22;53956;52.442;13.284;2023-04-05T00:10:48;6.90;74.10
18126;DHT22;53956;52.442;13.284;2023-04-05T00:13:17;6.90;74.00
18126;DHT22;53956;52.442;13.284;2023-04-05T00:15:43;6.70;73.60
18126;DHT22;53956;52.442;13.284;2023-04-05T00:18:10;6.50;74.30
18126;DHT22;53956;52.442;13.284;2023-04-05T00:20:46;6.50;74.00
18126;DHT22;53956;52.442;13.284;2023-04-05T00:23:14;6.50;74.50
18126;DHT22;53956;52.442;13.284;2023-04-05T00:25:42;6.50;74.50
18126;DHT22;53956;52.442;13.284;2023-04-05T00:28:09;6.30;74.50
18126;DHT22;53956;52.442;13.284;2023-04-05T00:30:37;6.40;74.70
18126;DHT22;53956;52.442;13.284;2023-04-05T00:33:03;6.60;74.30
18126;DHT22;53956;52.442;13.284;2023-04-05T00:35:30;6.50;74.90
18126;DHT22;53956;52.442;13.284;2023-04-05T00:37:57;6.50;74.70
18126;DHT22;53956;52.442;13.284;2023-04-05T00:40:24;6.40;75.40
18126;DHT22;53956;52.442;13.284;2023-04-05T00:42:50;6.20;75.60
18126;DHT22;53956;52.442;13.284;2023-04-05T00:45:17;6.30;75.90
18126;DHT22;53956;52.442;13.284;2023-04-05T00:47:45;6.10;76.30
18126;DHT22;53956;52.442;13.284;2023-04-05T00:50:12;6.10;75.90
18126;DHT22;53956;52.442;13.284;2023-04-05T00:52:40;6.30;75.80
18126;DHT22;53956;52.442;13.284;2023-04-05T00:55:09;5.80;75.60
18126;DHT22;53956;52.442;13.284;2023-04-05T00:57:36;6.20;75.50
18126;DHT22;53956;52.442;13.284;2023-04-05T01:00:06;6.20;76.20
18126;DHT22;53956;52.442;13.284;2023-04-05T01:02:35;6.10;76.30
18126;DHT22;53956;52.442;13.284;2023-04-05T01:05:20;6.00;75.50
18126;DHT22;53956;52.442;13.284;2023-04-05T01:07:55;6.20;74.80
18126;DHT22;53956;52.442;13.284;2023-04-05T01:10:35;6.10;74.10
18126;DHT22;53956;52.442;13.284;2023-04-05T01:13:03;6.20;73.70
18126;DHT22;53956;52.442;13.284;2023-04-05T01:15:30;6.10;74.60
18126;DHT22;53956;52.442;13.284;2023-04-05T01:17:57;6.10;74.50
18126;DHT22;53956;52.442;13.284;2023-04-05T01:20:32;6.10;74.30
18126;DHT22;53956;52.442;13.284;2023-04-05T01:23:25;6.10;73.90
18126;DHT22;53956;52.442;13.284;2023-04-05T01:26:08;6.00;74.40
18126;DHT22;53956;52.442;13.284;2023-04-05T01:28:55;5.90;74.40
18126;DHT22;53956;52.442;13.284;2023-04-05T01:31:29;6.20;73.70
18126;DHT22;53956;52.442;13.284;2023-04-05T01:34:01;5.90;73.30
18126;DHT22;53956;52.442;13.284;2023-04-05T01:36:31;5.90;73.10
18126;DHT22;53956;52.442;13.284;2023-04-05T01:39:01;5.80;73.30
18126;DHT22;53956;52.442;13.284;2023-04-05T01:41:29;5.90;73.80
18126;DHT22;53956;52.442;13.284;2023-04-05T01:43:56;5.80;74.00
18126;DHT22;53956;52.442;13.284;2023-04-05T01:46:23;5.70;74.40
18126;DHT22;53956;52.442;13.284;2023-04-05T01:48:51;5.80;74.90
18126;DHT22;53956;52.442;13.284;2023-04-05T01:51:18;5.70;75.30
18126;DHT22;53956;52.442;13.284;2023-04-05T01:53:45;5.60;75.80
18126;DHT22;53956;52.442;13.284;2023-04-05T01:56:13;5.60;75.50
18126;DHT22;53956;52.442;13.284;2023-04-05T01:58:40;5.70;75.40
18126;DHT22;53956;52.442;13.284;2023-04-05T02:01:06;5.80;76.20
18126;DHT22;53956;52.442;13.284;2023-04-05T02:03:33;5.70;76.60
18126;DHT22;53956;52.442;13.284;2023-04-05T02:06:02;5.60;75.70
18126;DHT22;53956;52.442;13.284;2023-04-05T02:08:29;5.60;76.30
18126;DHT22;53956;52.442;13.284;2023-04-05T02:10:56;5.40;76.20
18126;DHT22;53956;52.442;13.284;2023-04-05T02:13:23;5.60;76.70
18126;DHT22;53956;52.442;13.284;2023-04-05T02:15:50;5.40;76.40
18126;DHT22;53956;52.442;13.284;2023-04-05T02:18:18;5.70;76.80
18126;DHT22;53956;52.442;13.284;2023-04-05T02:20:47;5.50;76.60
18126;DHT22;53956;52.442;13.284;2023-04-05T02:23:17;5.40;76.10
18126;DHT22;53956;52.442;13.284;2023-04-05T02:25:43;5.70;76.60
18126;DHT22;53956;52.442;13.284;2023-04-05T02:28:10;5.30;75.90
18126;DHT22;53956;52.442;13.284;2023-04-05T02:30:37;5.50;76.30
18126;DHT22;53956;52.442;13.284;2023-04-05T02:33:04;5.40;76.80
18126;DHT22;53956;52.442;13.284;2023-04-05T02:35:30;5.30;76.30
18126;DHT22;53956;52.442;13.284;2023-04-05T02:37:57;5.20;76.60
18126;DHT22;53956;52.442;13.284;2023-04-05T02:40:25;5.30;76.50
18126;DHT22;53956;52.442;13.284;2023-04-05T02:42:51;5.50;76.90
18126;DHT22;53956;52.442;13.284;2023-04-05T02:45:18;5.40;77.40
18126;DHT22;53956;52.442;13.284;2023-04-05T02:47:45;5.40;77.10
18126;DHT22;53956;52.442;13.284;2023-04-05T02:50:13;5.30;77.30
18126;DHT22;53956;52.442;13.284;2023-04-05T02:52:45;5.40;77.40
18126;DHT22;53956;52.442;13.284;2023-04-05T02:55:12;5.50;77.70
18126;DHT22;53956;52.442;13.284;2023-04-05T02:57:41;5.60;77.50
18126;DHT22;53956;52.442;13.284;2023-04-05T03:00:21;5.50;78.20
18126;DHT22;53956;52.442;13.284;2023-04-05T03:02:48;5.40;77.80
18126;DHT22;53956;52.442;13.284;2023-04-05T03:05:16;5.40;78.00
18126;DHT22;53956;52.442;13.284;2023-04-05T03:07:46;5.50;78.20
18126;DHT22;53956;52.442;13.284;2023-04-05T03:10:16;5.40;78.30
18126;DHT22;53956;52.442;13.284;2023-04-05T03:12:51;5.70;77.20
18126;DHT22;53956;52.442;13.284;2023-04-05T03:15:22;5.60;78.10
18126;DHT22;53956;52.442;13.284;2023-04-05T03:17:48;5.50;77.90
18126;DHT22;53956;52.442;13.284;2023-04-05T03:20:15;5.60;77.20
18126;DHT22;53956;52.442;13.284;2023-04-05T03:22:42;5.40;78.10
18126;DHT22;53956;52.442;13.284;2023-04-05T03:25:10;5.40;77.70
18126;DHT22;53956;52.442;13.284;2023-04-05T03:27:43;5.60;77.90
18126;DHT22;53956;52.442;13.284;2023-04-05T03:30:15;5.50;78.30
18126;DHT22;53956;52.442;13.284;2023-04-05T03:32:52;5.90;80.00
18126;DHT22;53956;52.442;13.284;2023-04-05T03:35:32;6.00;78.30
18126;DHT22;53956;52.442;13.284;2023-04-05T03:37:59;5.70;76.40
18126;DHT22;53956;52.442;13.284;2023-04-05T03:40:26;5.90;76.70
18126;DHT22;53956;52.442;13.284;2023-04-05T03:42:53;5.70;76.60
18126;DHT22;53956;52.442;13.284;2023-04-05T03:45:21;5.80;76.90
18126;DHT22;53956;52.442;13.284;2023-04-05T03:47:48;5.80;77.40
18126;DHT22;53956;52.442;13.284;2023-04-05T03:50:15;5.70;77.50
18126;DHT22;53956;52.442;13.284;2023-04-05T03:52:41;5.80;77.50
18126;DHT22;53956;52.442;13.284;2023-04-05T03:55:08;5.90;77.30
18126;DHT22;53956;52.442;13.284;2023-04-05T03:57:36;5.80;77.70
18126;DHT22;53956;52.442;13.284;2023-04-05T04:00:16;5.80;78.00
18126;DHT22;53956;52.442;13.284;2023-04-05T04:02:45;6.10;75.80
18126;DHT22;53956;52.442;13.284;2023-04-05T04:05:18;6.20;75.50
18126;DHT22;53956;52.442;13.284;2023-04-05T04:07:49;6.30;75.80
18126;DHT22;53956;52.442;13.284;2023-04-05T04:10:17;6.20;75.70
18126;DHT22;53956;52.442;13.284;2023-04-05T04:12:48;5.90;76.30
18126;DHT22;53956;52.442;13.284;2023-04-05T04:15:16;5.80;77.90
18126;DHT22;53956;52.442;13.284;2023-04-05T04:17:59;5.70;79.10
18126;DHT22;53956;52.442;13.284;2023-04-05T04:20:31;5.80;79.10
18126;DHT22;53956;52.442;13.284;2023-04-05T04:23:17;5.90;79.00
18126;DHT22;53956;52.442;13.284;2023-04-05T04:26:00;5.80;79.00
18126;DHT22;53956;52.442;13.284;2023-04-05T04:28:53;5.80;78.70
18126;DHT22;53956;52.442;13.284;2023-04-05T04:31:45;5.90;79.80
18126;DHT22;53956;52.442;13.284;2023-04-05T04:34:34;5.60;79.40
18126;DHT22;53956;52.442;13.284;2023-04-05T04:37:21;6.00;79.20
18126;DHT22;53956;52.442;13.284;2023-04-05T04:40:13;5.90;79.60
18126;DHT22;53956;52.442;13.284;2023-04-05T04:43:00;5.90;79.10
18126;DHT22;53956;52.442;13.284;2023-04-05T04:45:50;5.90;79.30
18126;DHT22;53956;52.442;13.284;2023-04-05T04:48:35;6.20;78.90
18126;DHT22;53956;52.442;13.284;2023-04-05T04:51:27;6.20;78.50
18126;DHT22;53956;52.442;13.284;2023-04-05T04:53:54;6.00;79.50
18126;DHT22;53956;52.442;13.284;2023-04-05T04:56:20;6.50;78.70
18126;DHT22;53956;52.442;13.284;2023-04-05T04:58:48;6.30;77.80
18126;DHT22;53956;52.442;13.284;2023-04-05T05:01:14;6.20;79.30
18126;DHT22;53956;52.442;13.284;2023-04-05T05:03:42;6.00;80.20
18126;DHT22;53956;52.442;13.284;2023-04-05T05:06:09;6.20;79.40
18126;DHT22;53956;52.442;13.284;2023-04-05T05:08:38;6.00;79.10
18126;DHT22;53956;52.442;13.284;2023-04-05T05:11:06;6.10;79.30
18126;DHT22;53956;52.442;13.284;2023-04-05T05:13:32;6.10;78.50
18126;DHT22;53956;52.442;13.284;2023-04-05T05:15:59;6.10;79.00
18126;DHT22;53956;52.442;13.284;2023-04-05T05:18:28;6.20;79.30
18126;DHT22;53956;52.442;13.284;2023-04-05T05:20:55;6.10;80.20
18126;DHT22;53956;52.442;13.284;2023-04-05T05:23:22;6.00;80.60
18126;DHT22;53956;52.442;13.284;2023-04-05T05:25:50;6.00;79.80
18126;DHT22;53956;52.442;13.284;2023-04-05T05:28:16;6.20;79.30
18126;DHT22;53956;52.442;13.284;2023-04-05T05:30:43;6.10;79.70
18126;DHT22;53956;52.442;13.284;2023-04-05T05:33:10;5.90;79.80
18126;DHT22;53956;52.442;13.284;2023-04-05T05:35:40;6.10;80.00
18126;DHT22;53956;52.442;13.284;2023-04-05T05:38:06;6.30;80.10
18126;DHT22;53956;52.442;13.284;2023-04-05T05:40:33;6.40;79.50
18126;DHT22;53956;52.442;13.284;2023-04-05T05:43:01;6.50;78.60
18126;DHT22;53956;52.442;13.284;2023-04-05T05:45:28;6.50;78.00
18126;DHT22;53956;52.442;13.284;2023-04-05T05:47:55;6.40;79.90
18126;DHT22;53956;52.442;13.284;2023-04-05T05:50:21;6.50;78.60
18126;DHT22;53956;52.442;13.284;2023-04-05T05:52:48;6.40;79.60
18126;DHT22;53956;52.442;13.284;2023-04-05T05:55:15;6.60;79.60
18126;DHT22;53956;52.442;13.284;2023-04-05T05:57:42;6.70;78.40
18126;DHT22;53956;52.442;13.284;2023-04-05T06:00:11;6.60;78.40
18126;DHT22;53956;52.442;13.284;2023-04-05T06:02:38;6.60;78.50
18126;DHT22;53956;52.442;13.284;2023-04-05T06:05:05;6.80;79.30
18126;DHT22;53956;52.442;13.284;2023-04-05T06:07:35;6.70;77.30
18126;DHT22;53956;52.442;13.284;2023-04-05T06:10:02;6.90;78.80
18126;DHT22;53956;52.442;13.284;2023-04-05T06:12:28;7.00;78.00
18126;DHT22;53956;52.442;13.284;2023-04-05T06:14:55;7.00;78.20
18126;DHT22;53956;52.442;13.284;2023-04-05T06:17:23;7.10;78.40
18126;DHT22;53956;52.442;13.284;2023-04-05T06:19:49;7.10;77.50
18126;DHT22;53956;52.442;13.284;2023-04-05T06:22:16;7.20;77.00
18126;DHT22;53956;52.442;13.284;2023-04-05T06:24:44;7.20;76.30
18126;DHT22;53956;52.442;13.284;2023-04-05T06:27:10;7.30;75.20
18126;DHT22;53956;52.442;13.284;2023-04-05T06:29:39;7.30;75.40
18126;DHT22;53956;52.442;13.284;2023-04-05T06:32:05;8.20;74.80
18126;DHT22;53956;52.442;13.284;2023-04-05T06:34:33;9.40;70.60
18126;DHT22;53956;52.442;13.284;2023-04-05T06:37:00;10.70;66.90
18126;DHT22;53956;52.442;13.284;2023-04-05T06:39:27;12.10;64.60
18126;DHT22;53956;52.442;13.284;2023-04-05T06:41:53;12.60;62.50
18126;DHT22;53956;52.442;13.284;2023-04-05T06:44:25;11.50;63.30
18126;DHT22;53956;52.442;13.284;2023-04-05T06:46:52;10.60;65.30
18126;DHT22;53956;52.442;13.284;2023-04-05T06:49:19;10.60;65.20
18126;DHT22;53956;52.442;13.284;2023-04-05T06:51:47;10.20;65.30
18126;DHT22;53956;52.442;13.284;2023-04-05T06:54:13;9.90;66.80
18126;DHT22;53956;52.442;13.284;2023-04-05T06:56:40;9.60;68.00
18126;DHT22;53956;52.442;13.284;2023-04-05T06:59:06;9.50;68.40
18126;DHT22;53956;52.442;13.284;2023-04-05T07:01:33;9.30;67.80
18126;DHT22;53956;52.442;13.284;2023-04-05T07:04:00;9.10;68.60
18126;DHT22;53956;52.442;13.284;2023-04-05T07:06:26;9.00;69.00
18126;DHT22;53956;52.442;13.284;2023-04-05T07:08:54;8.90;70.00
18126;DHT22;53956;52.442;13.284;2023-04-05T07:11:21;9.10;69.90
18126;DHT22;53956;52.442;13.284;2023-04-05T07:13:48;9.00;70.40
18126;DHT22;53956;52.442;13.284;2023-04-05T07:16:15;8.90;70.40
18126;DHT22;53956;52.442;13.284;2023-04-05T07:18:43;9.00;70.20
18126;DHT22;53956;52.442;13.284;2023-04-05T07:21:10;9.00;69.90
18126;DHT22;53956;52.442;13.284;2023-04-05T07:23:36;8.90;70.30
18126;DHT22;53956;52.442;13.284;2023-04-05T07:26:04;8.90;70.80
18126;DHT22;53956;52.442;13.284;2023-04-05T07:28:32;9.00;71.30
18126;DHT22;53956;52.442;13.284;2023-04-05T07:31:00;9.10;71.80
18126;DHT22;53956;52.442;13.284;2023-04-05T07:33:27;9.10;71.60
18126;DHT22;53956;52.442;13.284;2023-04-05T07:35:54;9.20;71.40
18126;DHT22;53956;52.442;13.284;2023-04-05T07:38:21;9.30;71.20
18126;DHT22;53956;52.442;13.284;2023-04-05T07:40:48;9.20;71.60
18126;DHT22;53956;52.442;13.284;2023-04-05T07:45:44;9.50;72.60
18126;DHT22;53956;52.442;13.284;2023-04-05T07:48:10;9.50;71.60
18126;DHT22;53956;52.442;13.284;2023-04-05T07:50:37;9.50;71.50
18126;DHT22;53956;52.442;13.284;2023-04-05T07:53:05;9.80;70.70
18126;DHT22;53956;52.442;13.284;2023-04-05T07:55:32;10.60;69.70
18126;DHT22;53956;52.442;13.284;2023-04-05T07:57:59;10.80;68.50
18126;DHT22;53956;52.442;13.284;2023-04-05T08:00:27;10.70;68.30
18126;DHT22;53956;52.442;13.284;2023-04-05T08:02:53;10.70;68.80
18126;DHT22;53956;52.442;13.284;2023-04-05T08:05:20;10.60;68.40
18126;DHT22;53956;52.442;13.284;2023-04-05T08:07:47;10.60;68.90
18126;DHT22;53956;52.442;13.284;2023-04-05T08:10:13;12.40;65.70
18126;DHT22;53956;52.442;13.284;2023-04-05T08:12:40;13.00;63.40
18126;DHT22;53956;52.442;13.284;2023-04-05T08:15:08;12.60;64.80
18126;DHT22;53956;52.442;13.284;2023-04-05T08:17:36;12.60;65.80
18126;DHT22;53956;52.442;13.284;2023-04-05T08:20:03;12.70;63.40
18126;DHT22;53956;52.442;13.284;2023-04-05T08:22:30;13.50;63.60
18126;DHT22;53956;52.442;13.284;2023-04-05T08:24:56;14.20;60.80
18126;DHT22;53956;52.442;13.284;2023-04-05T08:27:23;13.90;60.60
18126;DHT22;53956;52.442;13.284;2023-04-05T08:29:50;14.20;61.00
18126;DHT22;53956;52.442;13.284;2023-04-05T08:32:16;13.80;59.60
18126;DHT22;53956;52.442;13.284;2023-04-05T08:34:44;14.10;61.50
18126;DHT22;53956;52.442;13.284;2023-04-05T08:37:11;14.50;60.60
18126;DHT22;53956;52.442;13.284;2023-04-05T08:39:37;15.00;60.40
18126;DHT22;53956;52.442;13.284;2023-04-05T08:42:15;15.30;59.60
18126;DHT22;53956;52.442;13.284;2023-04-05T08:44:43;15.50;57.20
18126;DHT22;53956;52.442;13.284;2023-04-05T08:47:11;15.80;56.90
18126;DHT22;53956;52.442;13.284;2023-04-05T08:49:42;15.50;56.60
18126;DHT22;53956;52.442;13.284;2023-04-05T08:52:10;15.10;57.00
18126;DHT22;53956;52.442;13.284;2023-04-05T08:54:37;14.80;59.10
18126;DHT22;53956;52.442;13.284;2023-04-05T08:57:04;13.70;59.30
18126;DHT22;53956;52.442;13.284;2023-04-05T08:59:32;13.80;60.10
18126;DHT22;53956;52.442;13.284;2023-04-05T09:02:06;13.10;61.90
18126;DHT22;53956;52.442;13.284;2023-04-05T09:04:36;13.50;62.00
18126;DHT22;53956;52.442;13.284;2023-04-05T09:07:05;14.00;61.20
18126;DHT22;53956;52.442;13.284;2023-04-05T09:09:36;14.50;60.20
18126;DHT22;53956;52.442;13.284;2023-04-05T09:12:03;14.50;59.50
18126;DHT22;53956;52.442;13.284;2023-04-05T09:14:32;13.80;60.40
18126;DHT22;53956;52.442;13.284;2023-04-05T09:17:01;14.10;60.60
18126;DHT22;53956;52.442;13.284;2023-04-05T09:19:28;13.50;61.10
18126;DHT22;53956;52.442;13.284;2023-04-05T09:22:02;14.10;60.30
18126;DHT22;53956;52.442;13.284;2023-04-05T09:24:37;13.60;60.70
18126;DHT22;53956;52.442;13.284;2023-04-05T09:27:07;14.00;60.10
18126;DHT22;53956;52.442;13.284;2023-04-05T09:29:35;14.10;60.70
18126;DHT22;53956;52.442;13.284;2023-04-05T09:32:05;14.40;59.30
18126;DHT22;53956;52.442;13.284;2023-04-05T09:34:33;14.00;59.00
18126;DHT22;53956;52.442;13.284;2023-04-05T09:37:01;13.90;60.00
18126;DHT22;53956;52.442;13.284;2023-04-05T09:39:29;14.00;60.00
18126;DHT22;53956;52.442;13.284;2023-04-05T09:42:08;14.10;60.70
18126;DHT22;53956;52.442;13.284;2023-04-05T09:44:50;14.20;60.40
18126;DHT22;53956;52.442;13.284;2023-04-05T09:47:18;13.30;60.30
18126;DHT22;53956;52.442;13.284;2023-04-05T09:49:50;13.50;61.30
18126;DHT22;53956;52.442;13.284;2023-04-05T09:52:18;13.60;61.80
18126;DHT22;53956;52.442;13.284;2023-04-05T09:54:44;13.40;59.90
18126;DHT22;53956;52.442;13.284;2023-04-05T09:57:14;13.00;60.10
18126;DHT22;53956;52.442;13.284;2023-04-05T09:59:41;12.70;60.70
18126;DHT22;53956;52.442;13.284;2023-04-05T10:02:09;12.90;61.40
18126;DHT22;53956;52.442;13.284;2023-04-05T10:04:40;13.10;61.00
18126;DHT22;53956;52.442;13.284;2023-04-05T10:07:08;13.00;60.50
18126;DHT22;53956;52.442;13.284;2023-04-05T10:09:35;12.50;62.30
18126;DHT22;53956;52.442;13.284;2023-04-05T10:12:04;11.90;62.40
18126;DHT22;53956;52.442;13.284;2023-04-05T10:14:33;11.10;63.80
18126;DHT22;53956;52.442;13.284;2023-04-05T10:17:07;11.40;63.20
18126;DHT22;53956;52.442;13.284;2023-04-05T10:19:44;11.10;63.90
18126;DHT22;53956;52.442;13.284;2023-04-05T10:22:22;11.00;65.00
18126;DHT22;53956;52.442;13.284;2023-04-05T10:24:51;11.20;64.80
18126;DHT22;53956;52.442;13.284;2023-04-05T10:27:25;11.30;65.30
18126;DHT22;53956;52.442;13.284;2023-04-05T10:30:02;11.50;64.30
18126;DHT22;53956;52.442;13.284;2023-04-05T10:32:37;11.40;64.50
18126;DHT22;53956;52.442;13.284;2023-04-05T10:35:09;11.30;63.70
18126;DHT22;53956;52.442;13.284;2023-04-05T10:37:49;11.60;63.90
18126;DHT22;53956;52.442;13.284;2023-04-05T10:40:20;11.40;63.50
18126;DHT22;53956;52.442;13.284;2023-04-05T10:42:47;11.60;64.30
18126;DHT22;53956;52.442;13.284;2023-04-05T10:45:17;11.30;62.60
18126;DHT22;53956;52.442;13.284;2023-04-05T10:47:49;11.40;63.70
18126;DHT22;53956;52.442;13.284;2023-04-05T10:50:21;11.30;64.10
18126;DHT22;53956;52.442;13.284;2023-04-05T10:52:48;11.10;63.90
18126;DHT22;53956;52.442;13.284;2023-04-05T10:55:16;10.80;63.90
18126;DHT22;53956;52.442;13.284;2023-04-05T10:57:44;10.80;64.30
18126;DHT22;53956;52.442;13.284;2023-04-05T11:00:12;10.90;64.50
18126;DHT22;53956;52.442;13.284;2023-04-05T11:02:41;11.00;65.90
18126;DHT22;53956;52.442;13.284;2023-04-05T11:05:30;10.90;65.40
18126;DHT22;53956;52.442;13.284;2023-04-05T11:08:01;11.10;66.00
18126;DHT22;53956;52.442;13.284;2023-04-05T11:10:28;10.80;64.70
18126;DHT22;53956;52.442;13.284;2023-04-05T11:13:06;10.70;64.90
18126;DHT22;53956;52.442;13.284;2023-04-05T11:15:34;10.60;65.00
18126;DHT22;53956;52.442;13.284;2023-04-05T11:18:06;10.80;64.70
18126;DHT22;53956;52.442;13.284;2023-04-05T11:20:45;10.80;63.80
18126;DHT22;53956;52.442;13.284;2023-04-05T11:23:13;10.70;62.90
18126;DHT22;53956;52.442;13.284;2023-04-05T11:25:46;10.60;64.70
18126;DHT22;53956;52.442;13.284;2023-04-05T11:28:37;10.60;64.30
18126;DHT22;53956;52.442;13.284;2023-04-05T11:31:13;10.60;64.00
18126;DHT22;53956;52.442;13.284;2023-04-05T11:33:56;10.50;64.20
18126;DHT22;53956;52.442;13.284;2023-04-05T11:36:32;10.40;65.40
18126;DHT22;53956;52.442;13.284;2023-04-05T11:39:24;10.40;65.20
18126;DHT22;53956;52.442;13.284;2023-04-05T11:41:59;10.60;64.50
18126;DHT22;53956;52.442;13.284;2023-04-05T11:44:27;10.60;65.80
18126;DHT22;53956;52.442;13.284;2023-04-05T11:46:56;10.50;65.50
18126;DHT22;53956;52.442;13.284;2023-04-05T11:49:24;10.40;66.80
18126;DHT22;53956;52.442;13.284;2023-04-05T11:51:51;10.50;67.00
18126;DHT22;53956;52.442;13.284;2023-04-05T11:54:29;10.70;66.40
18126;DHT22;53956;52.442;13.284;2023-04-05T11:56:56;10.70;66.00
18126;DHT22;53956;52.442;13.284;2023-04-05T11:59:33;10.90;65.10
18126;DHT22;53956;52.442;13.284;2023-04-05T12:02:01;10.90;64.90
18126;DHT22;53956;52.442;13.284;2023-04-05T12:04:29;11.00;65.90
18126;DHT22;53956;52.442;13.284;2023-04-05T12:07:13;11.10;64.60
18126;DHT22;53956;52.442;13.284;2023-04-05T12:10:01;11.00;62.80
18126;DHT22;53956;52.442;13.284;2023-04-05T12:12:32;10.90;64.90
18126;DHT22;53956;52.442;13.284;2023-04-05T12:14:59;10.90;63.90
18126;DHT22;53956;52.442;13.284;2023-04-05T12:17:43;10.80;64.30
18126;DHT22;53956;52.442;13.284;2023-04-05T12:20:12;10.70;63.60
18126;DHT22;53956;52.442;13.284;2023-04-05T12:22:41;10.70;63.10
18126;DHT22;53956;52.442;13.284;2023-04-05T12:25:09;10.80;64.10
18126;DHT22;53956;52.442;13.284;2023-04-05T12:27:36;10.70;63.40
18126;DHT22;53956;52.442;13.284;2023-04-05T12:30:11;10.70;63.20
18126;DHT22;53956;52.442;13.284;2023-04-05T12:32:41;10.80;63.20
18126;DHT22;53956;52.442;13.284;2023-04-05T12:35:15;10.70;63.40
18126;DHT22;53956;52.442;13.284;2023-04-05T12:37:41;10.80;64.30
18126;DHT22;53956;52.442;13.284;2023-04-05T12:40:09;10.90;65.10
18126;DHT22;53956;52.442;13.284;2023-04-05T12:42:37;11.00;65.70
18126;DHT22;53956;52.442;13.284;2023-04-05T12:45:05;11.10;65.90
18126;DHT22;53956;52.442;13.284;2023-04-05T12:47:33;11.10;65.60
18126;DHT22;53956;52.442;13.284;2023-04-05T12:50:13;11.00;65.30
18126;DHT22;53956;52.442;13.284;2023-04-05T12:52:51;11.10;65.60
18126;DHT22;53956;52.442;13.284;2023-04-05T12:55:18;11.00;65.10
18126;DHT22;53956;52.442;13.284;2023-04-05T12:57:48;11.00;65.10
18126;DHT22;53956;52.442;13.284;2023-04-05T13:00:16;10.80;65.80
18126;DHT22;53956;52.442;13.284;2023-04-05T13:02:47;10.70;67.50
18126;DHT22;53956;52.442;13.284;2023-04-05T13:05:16;10.70;68.20
18126;DHT22;53956;52.442;13.284;2023-04-05T13:07:43;10.70;68.20
18126;DHT22;53956;52.442;13.284;2023-04-05T13:10:10;10.60;68.20
18126;DHT22;53956;52.442;13.284;2023-04-05T13:12:36;10.70;68.90
18126;DHT22;53956;52.442;13.284;2023-04-05T13:15:04;10.90;68.80
18126;DHT22;53956;52.442;13.284;2023-04-05T13:17:31;10.90;68.90
18126;DHT22;53956;52.442;13.284;2023-04-05T13:19:58;11.00;68.50
18126;DHT22;53956;52.442;13.284;2023-04-05T13:22:26;10.90;67.50
18126;DHT22;53956;52.442;13.284;2023-04-05T13:24:52;10.90;67.20
18126;DHT22;53956;52.442;13.284;2023-04-05T13:27:19;10.80;67.50
18126;DHT22;53956;52.442;13.284;2023-04-05T13:29:47;11.00;67.80
18126;DHT22;53956;52.442;13.284;2023-04-05T13:32:13;11.00;67.90
18126;DHT22;53956;52.442;13.284;2023-04-05T13:34:40;10.80;67.50
18126;DHT22;53956;52.442;13.284;2023-04-05T13:37:06;10.70;67.70
18126;DHT22;53956;52.442;13.284;2023-04-05T13:39:34;10.80;67.90
18126;DHT22;53956;52.442;13.284;2023-04-05T13:42:01;10.80;67.00
18126;DHT22;53956;52.442;13.284;2023-04-05T13:44:28;10.80;67.40
18126;DHT22;53956;52.442;13.284;2023-04-05T13:46:54;11.00;65.90
18126;DHT22;53956;52.442;13.284;2023-04-05T13:49:21;11.00;65.30
18126;DHT22;53956;52.442;13.284;2023-04-05T13:51:48;10.90;66.50
18126;DHT22;53956;52.442;13.284;2023-04-05T13:54:14;11.10;66.50
18126;DHT22;53956;52.442;13.284;2023-04-05T13:56:43;11.20;66.80
18126;DHT22;53956;52.442;13.284;2023-04-05T13:59:10;11.00;65.90
18126;DHT22;53956;52.442;13.284;2023-04-05T14:01:40;11.10;65.60
18126;DHT22;53956;52.442;13.284;2023-04-05T14:04:07;10.90;65.30
18126;DHT22;53956;52.442;13.284;2023-04-05T14:06:34;10.90;66.40
18126;DHT22;53956;52.442;13.284;2023-04-05T14:09:00;10.90;67.10
18126;DHT22;53956;52.442;13.284;2023-04-05T14:11:27;11.20;67.50
18126;DHT22;53956;52.442;13.284;2023-04-05T14:13:55;11.10;66.30
18126;DHT22;53956;52.442;13.284;2023-04-05T14:16:22;10.90;65.00
18126;DHT22;53956;52.442;13.284;2023-04-05T14:18:48;10.90;67.00
18126;DHT22;53956;52.442;13.284;2023-04-05T14:21:15;11.00;67.90
18126;DHT22;53956;52.442;13.284;2023-04-05T14:23:42;11.30;68.00
18126;DHT22;53956;52.442;13.284;2023-04-05T14:26:09;11.10;66.00
18126;DHT22;53956;52.442;13.284;2023-04-05T14:28:36;11.10;67.10
18126;DHT22;53956;52.442;13.284;2023-04-05T14:31:04;11.00;66.20
18126;DHT22;53956;52.442;13.284;2023-04-05T14:33:30;11.00;66.10
18126;DHT22;53956;52.442;13.284;2023-04-05T14:35:57;11.00;65.20
18126;DHT22;53956;52.442;13.284;2023-04-05T14:38:24;10.90;64.30
18126;DHT22;53956;52.442;13.284;2023-04-05T14:40:51;11.00;64.70
18126;DHT22;53956;52.442;13.284;2023-04-05T14:43:17;10.80;64.20
18126;DHT22;53956;52.442;13.284;2023-04-05T14:45:44;10.80;64.80
18126;DHT22;53956;52.442;13.284;2023-04-05T14:48:12;10.90;65.40
18126;DHT22;53956;52.442;13.284;2023-04-05T14:50:38;11.10;66.20
18126;DHT22;53956;52.442;13.284;2023-04-05T14:53:05;11.20;66.00
18126;DHT22;53956;52.442;13.284;2023-04-05T14:55:32;11.10;66.50
18126;DHT22;53956;52.442;13.284;2023-04-05T14:57:59;11.10;67.50
18126;DHT22;53956;52.442;13.284;2023-04-05T15:00:25;11.00;67.60
18126;DHT22;53956;52.442;13.284;2023-04-05T15:02:52;11.00;67.00
18126;DHT22;53956;52.442;13.284;2023-04-05T15:05:20;11.00;66.50
18126;DHT22;53956;52.442;13.284;2023-04-05T15:07:47;10.90;67.10
18126;DHT22;53956;52.442;13.284;2023-04-05T15:10:13;11.00;66.80
18126;DHT22;53956;52.442;13.284;2023-04-05T15:12:42;10.90;65.50
18126;DHT22;53956;52.442;13.284;2023-04-05T15:15:10;10.90;64.70
18126;DHT22;53956;52.442;13.284;2023-04-05T15:17:36;10.90;66.40
18126;DHT22;53956;52.442;13.284;2023-04-05T15:20:04;10.90;66.60
18126;DHT22;53956;52.442;13.284;2023-04-05T15:22:32;11.00;66.20
18126;DHT22;53956;52.442;13.284;2023-04-05T15:25:00;10.80;66.00
18126;DHT22;53956;52.442;13.284;2023-04-05T15:27:27;10.90;67.00
18126;DHT22;53956;52.442;13.284;2023-04-05T15:29:53;11.10;67.40
18126;DHT22;53956;52.442;13.284;2023-04-05T15:32:20;11.00;66.70
18126;DHT22;53956;52.442;13.284;2023-04-05T15:34:47;11.10;67.00
18126;DHT22;53956;52.442;13.284;2023-04-05T15:37:13;11.20;67.00
18126;DHT22;53956;52.442;13.284;2023-04-05T15:39:41;11.20;66.70